sensor_id;sensor_type;location;lat;lon;timestamp;P1;durP1;ratioP1;P2;durP2;ratioP2
1206;SDS011;593;53.184;8.216;2023-08-31T00:00:07;2.23;;;1.57;;
1206;SDS011;593;53.184;8.216;2023-08-31T00:02:37;3.00;;;2.33;;
1206;SDS011;593;53.184;8.216;2023-08-31T00:05:04;2.60;;;2.23;;
1206;SDS011;593;53.184;8.216;2023-08-31T00:07:30;2.20;;;2.00;;
1206;SDS011;593;53.184;8.216;2023-08-31T00:09:55;3.03;;;1.47;;
1206;SDS011;593;53.184;8.216;2023-08-31T00:12:21;4.40;;;1.60;;
1206;SDS011;593;53.184;8.216;2023-08-31T00:14:47;3.67;;;1.70;;
1206;SDS011;593;53.184;8.216;2023-08-31T00:17:14;1.83;;;1.67;;
1206;SDS011;593;53.184;8.216;2023-08-31T00:19:40;1.97;;;1.67;;
1206;SDS011;593;53.184;8.216;2023-08-31T00:22:05;1.60;;;1.40;;
1206;SDS011;593;53.184;8.216;2023-08-31T00:24:30;3.20;;;1.80;;
1206;SDS011;593;53.184;8.216;2023-08-31T00:26:57;1.63;;;1.50;;
1206;SDS011;593;53.184;8.216;2023-08-31T00:29:22;1.80;;;1.33;;
1206;SDS011;593;53.184;8.216;2023-08-31T00:31:48;2.30;;;1.50;;
1206;SDS011;593;53.184;8.216;2023-08-31T00:34:16;1.10;;;1.00;;
1206;SDS011;593;53.184;8.216;2023-08-31T00:36:42;2.03;;;1.23;;
1206;SDS011;593;53.184;8.216;2023-08-31T00:39:08;1.40;;;1.27;;
1206;SDS011;593;53.184;8.216;2023-08-31T00:41:35;3.30;;;1.53;;
1206;SDS011;593;53.184;8.216;2023-08-31T00:44:01;1.73;;;1.50;;
1206;SDS011;593;53.184;8.216;2023-08-31T00:46:29;1.20;;;1.10;;
1206;SDS011;593;53.184;8.216;2023-08-31T00:48:56;2.67;;;1.30;;
1206;SDS011;593;53.184;8.216;2023-08-31T00:51:22;1.47;;;1.10;;
1206;SDS011;593;53.184;8.216;2023-08-31T00:53:48;1.40;;;1.27;;
1206;SDS011;593;53.184;8.216;2023-08-31T00:56:16;1.20;;;1.10;;
1206;SDS011;593;53.184;8.216;2023-08-31T00:58:42;1.77;;;1.43;;
1206;SDS011;593;53.184;8.216;2023-08-31T01:01:13;2.80;;;1.80;;
1206;SDS011;593;53.184;8.216;2023-08-31T01:04:02;4.10;;;1.30;;
1206;SDS011;593;53.184;8.216;2023-08-31T01:11:57;2.43;;;1.33;;
1206;SDS011;593;53.184;8.216;2023-08-31T01:14:49;3.00;;;1.43;;
1206;SDS011;593;53.184;8.216;2023-08-31T01:17:19;1.40;;;1.30;;
1206;SDS011;593;53.184;8.216;2023-08-31T01:19:54;3.77;;;1.70;;
1206;SDS011;593;53.184;8.216;2023-08-31T01:22:27;1.67;;;1.23;;
1206;SDS011;593;53.184;8.216;2023-08-31T01:24:57;3.03;;;1.40;;
1206;SDS011;593;53.184;8.216;2023-08-31T01:27:26;1.90;;;1.80;;
1206;SDS011;593;53.184;8.216;2023-08-31T01:29:53;2.67;;;1.80;;
1206;SDS011;593;53.184;8.216;2023-08-31T01:32:19;2.30;;;1.20;;
1206;SDS011;593;53.184;8.216;2023-08-31T01:34:45;1.73;;;1.63;;
1206;SDS011;593;53.184;8.216;2023-08-31T01:37:12;3.23;;;2.10;;
1206;SDS011;593;53.184;8.216;2023-08-31T01:39:49;1.63;;;1.53;;
1206;SDS011;593;53.184;8.216;2023-08-31T01:42:20;5.43;;;2.03;;
1206;SDS011;593;53.184;8.216;2023-08-31T01:44:47;3.97;;;2.43;;
1206;SDS011;593;53.184;8.216;2023-08-31T01:47:13;3.40;;;1.80;;
1206;SDS011;593;53.184;8.216;2023-08-31T01:49:41;2.50;;;1.57;;
1206;SDS011;593;53.184;8.216;2023-08-31T01:52:08;2.40;;;1.90;;
1206;SDS011;593;53.184;8.216;2023-08-31T01:54:33;1.73;;;1.63;;
1206;SDS011;593;53.184;8.216;2023-08-31T01:56:59;2.97;;;2.00;;
1206;SDS011;593;53.184;8.216;2023-08-31T01:59:25;2.80;;;2.10;;
1206;SDS011;593;53.184;8.216;2023-08-31T02:01:51;4.57;;;2.23;;
1206;SDS011;593;53.184;8.216;2023-08-31T02:04:17;4.77;;;2.17;;
1206;SDS011;593;53.184;8.216;2023-08-31T02:06:42;3.70;;;2.20;;
1206;SDS011;593;53.184;8.216;2023-08-31T02:09:08;3.80;;;2.27;;
1206;SDS011;593;53.184;8.216;2023-08-31T02:11:33;2.97;;;1.90;;
1206;SDS011;593;53.184;8.216;2023-08-31T02:14:02;2.00;;;1.43;;
1206;SDS011;593;53.184;8.216;2023-08-31T02:16:29;2.90;;;1.63;;
1206;SDS011;593;53.184;8.216;2023-08-31T02:18:55;5.10;;;1.70;;
1206;SDS011;593;53.184;8.216;2023-08-31T02:21:20;5.37;;;1.73;;
1206;SDS011;593;53.184;8.216;2023-08-31T02:23:46;2.77;;;1.90;;
1206;SDS011;593;53.184;8.216;2023-08-31T02:26:11;4.07;;;2.00;;
1206;SDS011;593;53.184;8.216;2023-08-31T02:28:37;3.10;;;1.90;;
1206;SDS011;593;53.184;8.216;2023-08-31T02:31:02;1.50;;;1.40;;
1206;SDS011;593;53.184;8.216;2023-08-31T02:33:28;1.90;;;1.53;;
1206;SDS011;593;53.184;8.216;2023-08-31T02:35:54;4.53;;;1.60;;
1206;SDS011;593;53.184;8.216;2023-08-31T02:38:20;2.57;;;1.80;;
1206;SDS011;593;53.184;8.216;2023-08-31T02:40:46;2.00;;;1.83;;
1206;SDS011;593;53.184;8.216;2023-08-31T02:43:12;2.57;;;1.80;;
1206;SDS011;593;53.184;8.216;2023-08-31T02:45:38;1.93;;;1.80;;
1206;SDS011;593;53.184;8.216;2023-08-31T02:48:03;1.73;;;1.63;;
1206;SDS011;593;53.184;8.216;2023-08-31T02:50:31;2.13;;;1.90;;
1206;SDS011;593;53.184;8.216;2023-08-31T02:52:56;1.63;;;1.53;;
1206;SDS011;593;53.184;8.216;2023-08-31T02:55:22;3.53;;;1.97;;
1206;SDS011;593;53.184;8.216;2023-08-31T02:57:47;3.10;;;2.33;;
1206;SDS011;593;53.184;8.216;2023-08-31T03:00:13;2.53;;;1.53;;
1206;SDS011;593;53.184;8.216;2023-08-31T03:02:39;1.60;;;1.47;;
1206;SDS011;593;53.184;8.216;2023-08-31T03:05:05;2.30;;;1.63;;
1206;SDS011;593;53.184;8.216;2023-08-31T03:07:31;3.33;;;2.23;;
1206;SDS011;593;53.184;8.216;2023-08-31T03:09:57;1.70;;;1.60;;
1206;SDS011;593;53.184;8.216;2023-08-31T03:12:22;2.20;;;1.83;;
1206;SDS011;593;53.184;8.216;2023-08-31T03:14:48;4.30;;;1.50;;
1206;SDS011;593;53.184;8.216;2023-08-31T03:17:13;4.87;;;1.90;;
1206;SDS011;593;53.184;8.216;2023-08-31T03:19:39;1.87;;;1.73;;
1206;SDS011;593;53.184;8.216;2023-08-31T03:22:04;2.40;;;1.53;;
1206;SDS011;593;53.184;8.216;2023-08-31T03:24:31;1.80;;;1.57;;
1206;SDS011;593;53.184;8.216;2023-08-31T03:26:57;1.67;;;1.53;;
1206;SDS011;593;53.184;8.216;2023-08-31T03:29:22;5.40;;;2.07;;
1206;SDS011;593;53.184;8.216;2023-08-31T03:31:51;1.50;;;1.40;;
1206;SDS011;593;53.184;8.216;2023-08-31T03:34:16;3.33;;;1.83;;
1206;SDS011;593;53.184;8.216;2023-08-31T03:36:42;2.63;;;1.67;;
1206;SDS011;593;53.184;8.216;2023-08-31T03:39:08;2.13;;;1.90;;
1206;SDS011;593;53.184;8.216;2023-08-31T03:41:34;2.10;;;1.47;;
1206;SDS011;593;53.184;8.216;2023-08-31T03:44:00;1.90;;;1.80;;
1206;SDS011;593;53.184;8.216;2023-08-31T03:46:26;2.00;;;1.80;;
1206;SDS011;593;53.184;8.216;2023-08-31T03:48:51;2.13;;;1.50;;
1206;SDS011;593;53.184;8.216;2023-08-31T03:51:17;2.23;;;2.13;;
1206;SDS011;593;53.184;8.216;2023-08-31T03:53:42;3.40;;;1.80;;
1206;SDS011;593;53.184;8.216;2023-08-31T03:56:09;2.50;;;1.40;;
1206;SDS011;593;53.184;8.216;2023-08-31T03:58:34;1.80;;;1.70;;
1206;SDS011;593;53.184;8.216;2023-08-31T04:01:00;3.10;;;1.77;;
1206;SDS011;593;53.184;8.216;2023-08-31T04:03:25;1.97;;;1.77;;
1206;SDS011;593;53.184;8.216;2023-08-31T04:05:54;2.90;;;1.90;;
1206;SDS011;593;53.184;8.216;2023-08-31T04:08:20;2.50;;;1.60;;
1206;SDS011;593;53.184;8.216;2023-08-31T04:10:46;1.30;;;1.20;;
1206;SDS011;593;53.184;8.216;2023-08-31T04:13:11;2.40;;;1.23;;
1206;SDS011;593;53.184;8.216;2023-08-31T04:15:36;2.03;;;1.43;;
1206;SDS011;593;53.184;8.216;2023-08-31T04:18:02;6.77;;;1.83;;
1206;SDS011;593;53.184;8.216;2023-08-31T04:20:27;1.47;;;1.23;;
1206;SDS011;593;53.184;8.216;2023-08-31T04:22:53;3.67;;;1.70;;
1206;SDS011;593;53.184;8.216;2023-08-31T04:25:18;2.90;;;1.77;;
1206;SDS011;593;53.184;8.216;2023-08-31T04:27:44;3.60;;;2.10;;
1206;SDS011;593;53.184;8.216;2023-08-31T04:30:11;1.90;;;1.80;;
1206;SDS011;593;53.184;8.216;2023-08-31T04:32:37;2.53;;;2.00;;
1206;SDS011;593;53.184;8.216;2023-08-31T04:35:05;3.93;;;1.77;;
1206;SDS011;593;53.184;8.216;2023-08-31T04:37:31;2.00;;;1.83;;
1206;SDS011;593;53.184;8.216;2023-08-31T04:39:57;3.93;;;2.70;;
1206;SDS011;593;53.184;8.216;2023-08-31T04:42:23;2.70;;;2.33;;
1206;SDS011;593;53.184;8.216;2023-08-31T04:44:49;3.00;;;2.27;;
1206;SDS011;593;53.184;8.216;2023-08-31T04:47:14;2.57;;;2.17;;
1206;SDS011;593;53.184;8.216;2023-08-31T04:49:40;4.13;;;1.67;;
1206;SDS011;593;53.184;8.216;2023-08-31T04:52:05;3.00;;;2.20;;
1206;SDS011;593;53.184;8.216;2023-08-31T04:54:31;4.60;;;2.50;;
1206;SDS011;593;53.184;8.216;2023-08-31T04:56:56;2.30;;;1.87;;
1206;SDS011;593;53.184;8.216;2023-08-31T04:59:21;5.50;;;3.40;;
1206;SDS011;593;53.184;8.216;2023-08-31T05:01:47;5.33;;;2.50;;
1206;SDS011;593;53.184;8.216;2023-08-31T05:04:12;3.23;;;2.93;;
1206;SDS011;593;53.184;8.216;2023-08-31T05:06:37;3.37;;;3.00;;
1206;SDS011;593;53.184;8.216;2023-08-31T05:09:03;3.13;;;2.80;;
1206;SDS011;593;53.184;8.216;2023-08-31T05:11:29;6.80;;;3.00;;
1206;SDS011;593;53.184;8.216;2023-08-31T05:13:55;4.90;;;3.30;;
1206;SDS011;593;53.184;8.216;2023-08-31T05:16:23;4.73;;;3.50;;
1206;SDS011;593;53.184;8.216;2023-08-31T05:18:49;4.97;;;4.10;;
1206;SDS011;593;53.184;8.216;2023-08-31T05:21:14;3.80;;;3.40;;
1206;SDS011;593;53.184;8.216;2023-08-31T05:23:40;6.20;;;3.90;;
1206;SDS011;593;53.184;8.216;2023-08-31T05:26:05;4.17;;;3.80;;
1206;SDS011;593;53.184;8.216;2023-08-31T05:28:31;4.47;;;4.07;;
1206;SDS011;593;53.184;8.216;2023-08-31T05:30:57;4.20;;;3.87;;
1206;SDS011;593;53.184;8.216;2023-08-31T05:33:23;4.97;;;4.57;;
1206;SDS011;593;53.184;8.216;2023-08-31T05:35:50;4.13;;;3.20;;
1206;SDS011;593;53.184;8.216;2023-08-31T05:38:16;5.70;;;4.30;;
1206;SDS011;593;53.184;8.216;2023-08-31T05:40:41;4.13;;;3.80;;
1206;SDS011;593;53.184;8.216;2023-08-31T05:43:14;6.80;;;4.20;;
1206;SDS011;593;53.184;8.216;2023-08-31T05:45:39;4.40;;;4.00;;
1206;SDS011;593;53.184;8.216;2023-08-31T05:48:05;4.23;;;3.83;;
1206;SDS011;593;53.184;8.216;2023-08-31T05:50:31;7.67;;;4.73;;
1206;SDS011;593;53.184;8.216;2023-08-31T05:52:56;4.60;;;4.20;;
1206;SDS011;593;53.184;8.216;2023-08-31T05:55:22;5.73;;;3.73;;
1206;SDS011;593;53.184;8.216;2023-08-31T05:57:47;5.20;;;4.70;;
1206;SDS011;593;53.184;8.216;2023-08-31T06:00:13;4.63;;;4.23;;
1206;SDS011;593;53.184;8.216;2023-08-31T06:02:38;5.07;;;4.57;;
1206;SDS011;593;53.184;8.216;2023-08-31T06:05:04;6.10;;;4.80;;
1206;SDS011;593;53.184;8.216;2023-08-31T06:07:30;6.37;;;4.23;;
1206;SDS011;593;53.184;8.216;2023-08-31T06:09:56;6.30;;;4.27;;
1206;SDS011;593;53.184;8.216;2023-08-31T06:12:22;5.17;;;4.77;;
1206;SDS011;593;53.184;8.216;2023-08-31T06:14:47;5.13;;;4.63;;
1206;SDS011;593;53.184;8.216;2023-08-31T06:17:13;4.60;;;4.23;;
1206;SDS011;593;53.184;8.216;2023-08-31T06:19:38;5.33;;;4.40;;
1206;SDS011;593;53.184;8.216;2023-08-31T06:22:05;4.87;;;4.37;;
1206;SDS011;593;53.184;8.216;2023-08-31T06:24:30;6.17;;;4.90;;
1206;SDS011;593;53.184;8.216;2023-08-31T06:26:57;5.67;;;5.10;;
1206;SDS011;593;53.184;8.216;2023-08-31T06:29:22;5.23;;;4.53;;
1206;SDS011;593;53.184;8.216;2023-08-31T06:31:48;4.53;;;4.13;;
1206;SDS011;593;53.184;8.216;2023-08-31T06:34:13;4.40;;;3.90;;
1206;SDS011;593;53.184;8.216;2023-08-31T06:36:38;4.47;;;4.10;;
1206;SDS011;593;53.184;8.216;2023-08-31T06:39:05;5.00;;;4.50;;
1206;SDS011;593;53.184;8.216;2023-08-31T06:41:31;5.27;;;4.37;;
1206;SDS011;593;53.184;8.216;2023-08-31T06:43:56;4.87;;;4.40;;
1206;SDS011;593;53.184;8.216;2023-08-31T06:46:22;4.27;;;3.93;;
1206;SDS011;593;53.184;8.216;2023-08-31T06:48:47;4.47;;;4.07;;
1206;SDS011;593;53.184;8.216;2023-08-31T06:51:13;6.33;;;4.60;;
1206;SDS011;593;53.184;8.216;2023-08-31T06:53:39;4.40;;;4.10;;
1206;SDS011;593;53.184;8.216;2023-08-31T06:56:06;5.50;;;4.40;;
1206;SDS011;593;53.184;8.216;2023-08-31T06:58:32;6.10;;;4.27;;
1206;SDS011;593;53.184;8.216;2023-08-31T07:00:57;4.53;;;4.13;;
1206;SDS011;593;53.184;8.216;2023-08-31T07:03:23;5.40;;;4.20;;
1206;SDS011;593;53.184;8.216;2023-08-31T07:05:48;7.20;;;4.70;;
1206;SDS011;593;53.184;8.216;2023-08-31T07:08:14;4.80;;;4.27;;
1206;SDS011;593;53.184;8.216;2023-08-31T07:10:39;4.43;;;4.10;;
1206;SDS011;593;53.184;8.216;2023-08-31T07:13:05;4.60;;;4.20;;
1206;SDS011;593;53.184;8.216;2023-08-31T07:15:30;5.50;;;4.97;;
1206;SDS011;593;53.184;8.216;2023-08-31T07:17:56;4.47;;;4.07;;
1206;SDS011;593;53.184;8.216;2023-08-31T07:20:21;4.43;;;3.93;;
1206;SDS011;593;53.184;8.216;2023-08-31T07:22:46;4.70;;;4.10;;
1206;SDS011;593;53.184;8.216;2023-08-31T07:25:12;4.40;;;4.10;;
1206;SDS011;593;53.184;8.216;2023-08-31T07:27:37;3.53;;;3.33;;
1206;SDS011;593;53.184;8.216;2023-08-31T07:30:03;4.83;;;4.03;;
1206;SDS011;593;53.184;8.216;2023-08-31T07:32:30;5.57;;;4.10;;
1206;SDS011;593;53.184;8.216;2023-08-31T07:34:56;4.93;;;4.43;;
1206;SDS011;593;53.184;8.216;2023-08-31T07:37:22;4.50;;;4.10;;
1206;SDS011;593;53.184;8.216;2023-08-31T07:39:47;3.83;;;3.53;;
1206;SDS011;593;53.184;8.216;2023-08-31T07:42:13;4.37;;;3.90;;
1206;SDS011;593;53.184;8.216;2023-08-31T07:44:38;7.40;;;3.70;;
1206;SDS011;593;53.184;8.216;2023-08-31T07:47:03;4.97;;;3.73;;
1206;SDS011;593;53.184;8.216;2023-08-31T07:49:29;3.93;;;3.63;;
1206;SDS011;593;53.184;8.216;2023-08-31T07:51:54;4.73;;;4.37;;
1206;SDS011;593;53.184;8.216;2023-08-31T07:54:23;4.83;;;4.10;;
1206;SDS011;593;53.184;8.216;2023-08-31T07:56:48;4.27;;;3.93;;
1206;SDS011;593;53.184;8.216;2023-08-31T07:59:14;3.70;;;3.40;;
1206;SDS011;593;53.184;8.216;2023-08-31T08:01:40;3.67;;;3.37;;
1206;SDS011;593;53.184;8.216;2023-08-31T08:04:06;3.20;;;3.00;;
1206;SDS011;593;53.184;8.216;2023-08-31T08:06:31;3.87;;;3.67;;
1206;SDS011;593;53.184;8.216;2023-08-31T08:08:59;3.57;;;3.23;;
1206;SDS011;593;53.184;8.216;2023-08-31T08:11:25;3.60;;;3.20;;
1206;SDS011;593;53.184;8.216;2023-08-31T08:13:50;3.77;;;3.47;;
1206;SDS011;593;53.184;8.216;2023-08-31T08:16:18;4.07;;;3.77;;
1206;SDS011;593;53.184;8.216;2023-08-31T08:18:44;4.13;;;3.40;;
1206;SDS011;593;53.184;8.216;2023-08-31T08:21:09;3.23;;;3.03;;
1206;SDS011;593;53.184;8.216;2023-08-31T08:23:34;3.90;;;3.50;;
1206;SDS011;593;53.184;8.216;2023-08-31T08:26:00;3.50;;;3.20;;
1206;SDS011;593;53.184;8.216;2023-08-31T08:28:25;5.80;;;4.43;;
1206;SDS011;593;53.184;8.216;2023-08-31T08:30:51;5.23;;;3.53;;
1206;SDS011;593;53.184;8.216;2023-08-31T08:33:16;4.10;;;3.80;;
1206;SDS011;593;53.184;8.216;2023-08-31T08:35:42;3.30;;;3.10;;
1206;SDS011;593;53.184;8.216;2023-08-31T08:38:07;4.13;;;3.17;;
1206;SDS011;593;53.184;8.216;2023-08-31T08:40:33;4.13;;;3.43;;
1206;SDS011;593;53.184;8.216;2023-08-31T08:43:03;3.60;;;3.30;;
1206;SDS011;593;53.184;8.216;2023-08-31T08:45:35;3.47;;;3.17;;
1206;SDS011;593;53.184;8.216;2023-08-31T08:48:04;5.00;;;4.17;;
1206;SDS011;593;53.184;8.216;2023-08-31T08:50:31;4.47;;;4.07;;
1206;SDS011;593;53.184;8.216;2023-08-31T08:52:59;5.37;;;4.87;;
1206;SDS011;593;53.184;8.216;2023-08-31T08:55:25;4.53;;;4.13;;
1206;SDS011;593;53.184;8.216;2023-08-31T08:57:50;5.00;;;4.53;;
1206;SDS011;593;53.184;8.216;2023-08-31T09:00:15;4.53;;;4.13;;
1206;SDS011;593;53.184;8.216;2023-08-31T09:02:41;4.97;;;4.47;;
1206;SDS011;593;53.184;8.216;2023-08-31T09:05:06;5.87;;;4.83;;
1206;SDS011;593;53.184;8.216;2023-08-31T09:07:34;4.50;;;4.10;;
1206;SDS011;593;53.184;8.216;2023-08-31T09:10:01;4.03;;;3.73;;
1206;SDS011;593;53.184;8.216;2023-08-31T09:12:26;5.47;;;4.37;;
1206;SDS011;593;53.184;8.216;2023-08-31T09:15:02;5.27;;;4.80;;
1206;SDS011;593;53.184;8.216;2023-08-31T09:17:39;5.00;;;4.17;;
1206;SDS011;593;53.184;8.216;2023-08-31T09:20:09;3.90;;;3.60;;
1206;SDS011;593;53.184;8.216;2023-08-31T09:22:35;3.63;;;3.43;;
1206;SDS011;593;53.184;8.216;2023-08-31T09:25:00;4.60;;;3.03;;
1206;SDS011;593;53.184;8.216;2023-08-31T09:27:26;4.30;;;3.63;;
1206;SDS011;593;53.184;8.216;2023-08-31T09:29:54;2.10;;;2.00;;
1206;SDS011;593;53.184;8.216;2023-08-31T09:32:20;3.07;;;1.97;;
1206;SDS011;593;53.184;8.216;2023-08-31T09:34:46;3.73;;;1.70;;
1206;SDS011;593;53.184;8.216;2023-08-31T09:37:12;2.50;;;1.33;;
1206;SDS011;593;53.184;8.216;2023-08-31T09:39:40;1.20;;;1.10;;
1206;SDS011;593;53.184;8.216;2023-08-31T09:42:06;1.50;;;1.20;;
1206;SDS011;593;53.184;8.216;2023-08-31T09:44:32;3.00;;;1.00;;
1206;SDS011;593;53.184;8.216;2023-08-31T09:46:57;1.40;;;1.30;;
1206;SDS011;593;53.184;8.216;2023-08-31T09:49:23;2.20;;;1.00;;
1206;SDS011;593;53.184;8.216;2023-08-31T09:51:50;1.50;;;1.40;;
1206;SDS011;593;53.184;8.216;2023-08-31T09:54:16;1.10;;;1.00;;
1206;SDS011;593;53.184;8.216;2023-08-31T09:56:43;1.00;;;0.70;;
1206;SDS011;593;53.184;8.216;2023-08-31T09:59:11;2.47;;;1.40;;
1206;SDS011;593;53.184;8.216;2023-08-31T10:01:37;1.00;;;0.63;;
1206;SDS011;593;53.184;8.216;2023-08-31T10:04:04;0.80;;;0.80;;
1206;SDS011;593;53.184;8.216;2023-08-31T10:06:31;1.37;;;0.60;;
1206;SDS011;593;53.184;8.216;2023-08-31T10:08:57;2.80;;;0.80;;
1206;SDS011;593;53.184;8.216;2023-08-31T10:11:24;0.80;;;0.63;;
1206;SDS011;593;53.184;8.216;2023-08-31T10:13:50;1.53;;;0.70;;
1206;SDS011;593;53.184;8.216;2023-08-31T10:16:17;1.20;;;0.70;;
1206;SDS011;593;53.184;8.216;2023-08-31T10:18:44;2.77;;;0.90;;
1206;SDS011;593;53.184;8.216;2023-08-31T10:21:09;2.33;;;0.90;;
1206;SDS011;593;53.184;8.216;2023-08-31T10:23:35;1.93;;;0.60;;
1206;SDS011;593;53.184;8.216;2023-08-31T10:26:01;2.23;;;0.70;;
1206;SDS011;593;53.184;8.216;2023-08-31T10:28:28;3.03;;;0.70;;
1206;SDS011;593;53.184;8.216;2023-08-31T10:31:04;2.00;;;0.80;;
1206;SDS011;593;53.184;8.216;2023-08-31T10:33:31;1.27;;;0.87;;
1206;SDS011;593;53.184;8.216;2023-08-31T10:38:40;2.90;;;0.70;;
1206;SDS011;593;53.184;8.216;2023-08-31T10:46:15;1.23;;;0.80;;
1206;SDS011;593;53.184;8.216;2023-08-31T10:48:53;1.53;;;0.80;;
1206;SDS011;593;53.184;8.216;2023-08-31T10:51:29;1.57;;;0.80;;
1206;SDS011;593;53.184;8.216;2023-08-31T10:57:22;1.43;;;0.70;;
1206;SDS011;593;53.184;8.216;2023-08-31T10:59:45;1.40;;;0.87;;
1206;SDS011;593;53.184;8.216;2023-08-31T11:05:09;1.67;;;0.73;;
1206;SDS011;593;53.184;8.216;2023-08-31T11:07:40;1.40;;;0.90;;
1206;SDS011;593;53.184;8.216;2023-08-31T11:10:22;0.80;;;0.77;;
1206;SDS011;593;53.184;8.216;2023-08-31T11:12:49;1.00;;;0.83;;
1206;SDS011;593;53.184;8.216;2023-08-31T11:15:16;1.43;;;0.73;;
1206;SDS011;593;53.184;8.216;2023-08-31T11:17:43;1.53;;;0.70;;
1206;SDS011;593;53.184;8.216;2023-08-31T11:20:12;2.00;;;0.90;;
1206;SDS011;593;53.184;8.216;2023-08-31T11:22:40;1.00;;;0.87;;
1206;SDS011;593;53.184;8.216;2023-08-31T11:25:07;0.80;;;0.50;;
1206;SDS011;593;53.184;8.216;2023-08-31T11:27:34;1.00;;;0.50;;
1206;SDS011;593;53.184;8.216;2023-08-31T11:29:59;0.90;;;0.60;;
1206;SDS011;593;53.184;8.216;2023-08-31T11:32:25;1.43;;;0.77;;
1206;SDS011;593;53.184;8.216;2023-08-31T11:34:50;1.63;;;0.90;;
1206;SDS011;593;53.184;8.216;2023-08-31T11:37:15;2.00;;;0.60;;
1206;SDS011;593;53.184;8.216;2023-08-31T11:39:50;1.10;;;0.67;;
1206;SDS011;593;53.184;8.216;2023-08-31T11:42:17;1.10;;;0.60;;
1206;SDS011;593;53.184;8.216;2023-08-31T11:44:45;0.80;;;0.57;;
1206;SDS011;593;53.184;8.216;2023-08-31T11:47:12;1.83;;;0.70;;
1206;SDS011;593;53.184;8.216;2023-08-31T11:49:38;0.70;;;0.70;;
1206;SDS011;593;53.184;8.216;2023-08-31T11:52:05;0.70;;;0.50;;
1206;SDS011;593;53.184;8.216;2023-08-31T11:54:31;5.30;;;1.67;;
1206;SDS011;593;53.184;8.216;2023-08-31T11:56:56;2.57;;;0.70;;
1206;SDS011;593;53.184;8.216;2023-08-31T11:59:21;1.13;;;0.80;;
1206;SDS011;593;53.184;8.216;2023-08-31T12:01:48;3.87;;;0.50;;
1206;SDS011;593;53.184;8.216;2023-08-31T12:04:21;0.80;;;0.50;;
1206;SDS011;593;53.184;8.216;2023-08-31T12:06:48;1.57;;;0.60;;
1206;SDS011;593;53.184;8.216;2023-08-31T12:09:15;0.93;;;0.50;;
1206;SDS011;593;53.184;8.216;2023-08-31T12:11:40;1.37;;;0.50;;
1206;SDS011;593;53.184;8.216;2023-08-31T12:14:17;0.90;;;0.50;;
1206;SDS011;593;53.184;8.216;2023-08-31T12:17:00;1.40;;;0.60;;
1206;SDS011;593;53.184;8.216;2023-08-31T12:19:28;0.80;;;0.60;;
1206;SDS011;593;53.184;8.216;2023-08-31T12:21:54;2.20;;;0.60;;
1206;SDS011;593;53.184;8.216;2023-08-31T12:24:20;0.70;;;0.40;;
1206;SDS011;593;53.184;8.216;2023-08-31T12:26:48;0.90;;;0.70;;
1206;SDS011;593;53.184;8.216;2023-08-31T12:29:13;0.90;;;0.70;;
1206;SDS011;593;53.184;8.216;2023-08-31T12:31:39;1.30;;;0.60;;
1206;SDS011;593;53.184;8.216;2023-08-31T12:34:04;1.03;;;0.70;;
1206;SDS011;593;53.184;8.216;2023-08-31T12:36:32;1.53;;;0.60;;
1206;SDS011;593;53.184;8.216;2023-08-31T12:38:58;2.50;;;0.60;;
1206;SDS011;593;53.184;8.216;2023-08-31T12:41:26;0.70;;;0.57;;
1206;SDS011;593;53.184;8.216;2023-08-31T12:43:53;1.00;;;0.50;;
1206;SDS011;593;53.184;8.216;2023-08-31T12:46:18;1.53;;;0.60;;
1206;SDS011;593;53.184;8.216;2023-08-31T12:48:43;6.10;;;0.90;;
1206;SDS011;593;53.184;8.216;2023-08-31T12:51:09;0.60;;;0.50;;
1206;SDS011;593;53.184;8.216;2023-08-31T12:53:37;0.83;;;0.60;;
1206;SDS011;593;53.184;8.216;2023-08-31T12:56:04;1.70;;;1.60;;
1206;SDS011;593;53.184;8.216;2023-08-31T12:58:29;1.07;;;0.67;;
1206;SDS011;593;53.184;8.216;2023-08-31T13:00:57;0.70;;;0.60;;
1206;SDS011;593;53.184;8.216;2023-08-31T13:03:25;1.73;;;0.70;;
1206;SDS011;593;53.184;8.216;2023-08-31T13:05:51;1.40;;;0.60;;
1206;SDS011;593;53.184;8.216;2023-08-31T13:08:17;1.27;;;0.67;;
1206;SDS011;593;53.184;8.216;2023-08-31T13:10:42;0.70;;;0.60;;
1206;SDS011;593;53.184;8.216;2023-08-31T13:13:08;1.10;;;0.93;;
1206;SDS011;593;53.184;8.216;2023-08-31T13:15:34;1.47;;;0.70;;
1206;SDS011;593;53.184;8.216;2023-08-31T13:17:59;1.23;;;0.60;;
1206;SDS011;593;53.184;8.216;2023-08-31T13:20:25;1.73;;;0.60;;
1206;SDS011;593;53.184;8.216;2023-08-31T13:22:52;0.70;;;0.50;;
1206;SDS011;593;53.184;8.216;2023-08-31T13:25:17;0.70;;;0.60;;
1206;SDS011;593;53.184;8.216;2023-08-31T13:27:43;1.57;;;0.60;;
1206;SDS011;593;53.184;8.216;2023-08-31T13:30:09;0.60;;;0.50;;
1206;SDS011;593;53.184;8.216;2023-08-31T13:32:37;0.97;;;0.67;;
1206;SDS011;593;53.184;8.216;2023-08-31T13:35:02;3.50;;;0.73;;
1206;SDS011;593;53.184;8.216;2023-08-31T13:37:28;1.47;;;0.60;;
1206;SDS011;593;53.184;8.216;2023-08-31T13:39:53;3.20;;;0.70;;
1206;SDS011;593;53.184;8.216;2023-08-31T13:42:20;1.00;;;0.60;;
1206;SDS011;593;53.184;8.216;2023-08-31T13:44:46;0.63;;;0.60;;
1206;SDS011;593;53.184;8.216;2023-08-31T13:47:11;1.03;;;0.70;;
1206;SDS011;593;53.184;8.216;2023-08-31T13:49:36;0.90;;;0.57;;
1206;SDS011;593;53.184;8.216;2023-08-31T13:52:02;0.70;;;0.60;;
1206;SDS011;593;53.184;8.216;2023-08-31T13:54:30;3.13;;;0.63;;
1206;SDS011;593;53.184;8.216;2023-08-31T13:56:56;1.10;;;0.60;;
1206;SDS011;593;53.184;8.216;2023-08-31T13:59:24;2.40;;;0.60;;
1206;SDS011;593;53.184;8.216;2023-08-31T14:01:55;1.13;;;0.70;;
1206;SDS011;593;53.184;8.216;2023-08-31T14:04:21;0.90;;;0.60;;
1206;SDS011;593;53.184;8.216;2023-08-31T14:06:49;0.77;;;0.53;;
1206;SDS011;593;53.184;8.216;2023-08-31T14:09:14;2.23;;;0.80;;
1206;SDS011;593;53.184;8.216;2023-08-31T14:11:43;0.90;;;0.50;;
1206;SDS011;593;53.184;8.216;2023-08-31T14:14:08;0.83;;;0.70;;
1206;SDS011;593;53.184;8.216;2023-08-31T14:16:37;0.90;;;0.73;;
1206;SDS011;593;53.184;8.216;2023-08-31T14:19:03;0.93;;;0.80;;
1206;SDS011;593;53.184;8.216;2023-08-31T14:21:29;0.80;;;0.70;;
1206;SDS011;593;53.184;8.216;2023-08-31T14:23:54;1.73;;;0.80;;
1206;SDS011;593;53.184;8.216;2023-08-31T14:26:21;1.13;;;0.77;;
1206;SDS011;593;53.184;8.216;2023-08-31T14:28:48;1.00;;;0.60;;
1206;SDS011;593;53.184;8.216;2023-08-31T14:31:14;1.53;;;0.83;;
1206;SDS011;593;53.184;8.216;2023-08-31T14:33:40;1.20;;;0.60;;
1206;SDS011;593;53.184;8.216;2023-08-31T14:36:06;1.77;;;0.60;;
1206;SDS011;593;53.184;8.216;2023-08-31T14:38:31;0.80;;;0.60;;
1206;SDS011;593;53.184;8.216;2023-08-31T14:40:57;0.90;;;0.60;;
1206;SDS011;593;53.184;8.216;2023-08-31T14:43:22;0.80;;;0.70;;
1206;SDS011;593;53.184;8.216;2023-08-31T14:45:47;1.30;;;0.63;;
1206;SDS011;593;53.184;8.216;2023-08-31T14:48:13;1.50;;;0.70;;
1206;SDS011;593;53.184;8.216;2023-08-31T14:50:42;1.27;;;0.63;;
1206;SDS011;593;53.184;8.216;2023-08-31T14:53:08;1.83;;;1.60;;
1206;SDS011;593;53.184;8.216;2023-08-31T14:55:33;0.73;;;0.70;;
1206;SDS011;593;53.184;8.216;2023-08-31T14:57:59;1.10;;;0.60;;
1206;SDS011;593;53.184;8.216;2023-08-31T15:00:25;1.43;;;0.80;;
1206;SDS011;593;53.184;8.216;2023-08-31T15:02:50;0.63;;;0.60;;
1206;SDS011;593;53.184;8.216;2023-08-31T15:05:15;2.37;;;0.70;;
1206;SDS011;593;53.184;8.216;2023-08-31T15:07:41;0.93;;;0.90;;
1206;SDS011;593;53.184;8.216;2023-08-31T15:10:06;1.93;;;0.60;;
1206;SDS011;593;53.184;8.216;2023-08-31T15:12:32;1.60;;;0.70;;
1206;SDS011;593;53.184;8.216;2023-08-31T15:14:58;2.00;;;0.60;;
1206;SDS011;593;53.184;8.216;2023-08-31T15:17:24;1.00;;;0.70;;
1206;SDS011;593;53.184;8.216;2023-08-31T15:19:52;0.90;;;0.70;;
1206;SDS011;593;53.184;8.216;2023-08-31T15:22:18;2.03;;;0.60;;
1206;SDS011;593;53.184;8.216;2023-08-31T15:24:43;3.60;;;0.90;;
1206;SDS011;593;53.184;8.216;2023-08-31T15:27:09;3.10;;;0.73;;
1206;SDS011;593;53.184;8.216;2023-08-31T15:29:35;1.57;;;0.80;;
1206;SDS011;593;53.184;8.216;2023-08-31T15:32:00;2.60;;;0.60;;
1206;SDS011;593;53.184;8.216;2023-08-31T15:34:25;3.93;;;0.80;;
1206;SDS011;593;53.184;8.216;2023-08-31T15:36:52;1.83;;;0.57;;
1206;SDS011;593;53.184;8.216;2023-08-31T15:39:17;0.70;;;0.60;;
1206;SDS011;593;53.184;8.216;2023-08-31T15:41:42;0.70;;;0.50;;
1206;SDS011;593;53.184;8.216;2023-08-31T15:44:08;1.23;;;0.50;;